Time;durP1;ratioP1;P1;durP2;ratioP2;P2;SDS_P1;SDS_P2;PMS_P1;PMS_P2;Temp;Humidity;BMP_temperature;BMP_pressure;BME280_temperature;BME280_humidity;BME280_pressure;Samples;Min_cycle;Max_cycle;Signal;HPM_P1;HPM_P2
2023/05/05 00:10:52;;;;;;;;;;;;;;;8.81;68.72;98902.66;105754;1303;24224;-86
2023/05/05 00:18:24;;;;;;;;;;;;;;;8.80;68.69;98896.98;104679;1295;544597;-86
2023/05/05 00:21:51;;;;;;;;;;;;;;;8.75;68.64;98889.02;107370;1287;22520;-87
2023/05/05 00:32:24;;;;;;;;;;;;;;;8.64;68.65;98870.02;102222;1299;5472241;-87
2023/05/05 00:38:58;;;;;;;;;;;;;;;8.55;68.96;98870.72;104712;1306;22785;-85
2023/05/05 01:04:43;;;;;;;;;;;;;;;7.49;75.38;98875.42;106328;1299;22747;-87
2023/05/05 01:12:02;;;;;;;;;;;;;;;7.33;75.82;98858.64;105037;1293;122333;-87
2023/05/05 01:19:55;;;;;;;;;;;;;;;7.32;75.47;98857.61;104094;1305;556839;-87
2023/05/05 01:23:25;;;;;;;;;;;;;;;7.32;75.45;98856.44;106553;1292;23337;-87
2023/05/05 01:26:58;;;;;;;;;;;;;;;7.31;75.44;98854.90;106513;1290;22527;-87
2023/05/05 01:34:12;;;;;;;;;;;;;;;7.31;75.09;98850.45;101934;1298;24742;-86
2023/05/05 01:41:08;;;;;;;;;;;;;;;7.27;74.11;98841.73;104525;1302;22559;-86
2023/05/05 01:48:36;;;;;;;;;;;;;;;7.26;74.48;98838.63;104059;1302;545279;-85
2023/05/05 02:02:35;;;;;;;;;;;;;;;7.12;74.88;98833.96;100926;1313;5505814;-87
2023/05/05 02:13:33;;;;;;;;;;;;;;;7.03;75.35;98846.37;103922;1315;544345;-87
2023/05/05 02:24:07;;;;;;;;;;;;;;;6.57;76.65;98842.40;104710;1299;22633;-87
2023/05/05 02:27:35;;;;;;;;;;;;;;;6.51;77.50;98843.70;100157;1321;5515127;-87
2023/05/05 02:34:29;;;;;;;;;;;;;;;6.45;77.89;98848.83;103599;1311;22610;-87
2023/05/05 02:42:02;;;;;;;;;;;;;;;6.39;78.17;98841.95;103943;1299;544422;-87
2023/05/05 02:45:30;;;;;;;;;;;;;;;6.34;78.94;98841.74;107255;1282;23424;-87
2023/05/05 02:52:01;;;;;;;;;;;;;;;6.34;79.19;98846.78;105334;1290;22982;-87
2023/05/05 02:55:53;;;;;;;;;;;;;;;6.34;78.75;98863.92;100891;1309;5585930;-87
2023/05/05 03:07:17;;;;;;;;;;;;;;;6.46;79.07;98855.58;104566;1305;559555;-86
2023/05/05 03:17:40;;;;;;;;;;;;;;;6.49;78.95;98864.95;105252;1290;25573;-87
2023/05/05 03:24:18;;;;;;;;;;;;;;;6.57;78.53;98864.43;104098;1323;124016;-88
2023/05/05 03:32:13;;;;;;;;;;;;;;;6.65;78.44;98859.46;104111;1315;546965;-87
2023/05/05 03:39:46;;;;;;;;;;;;;;;6.74;78.38;98847.25;104853;1301;547747;-86
2023/05/05 03:50:10;;;;;;;;;;;;;;;6.78;78.40;98860.66;105232;1296;123437;-86
2023/05/05 03:53:35;;;;;;;;;;;;;;;6.79;77.95;98865.33;100994;1317;5494279;-87
2023/05/05 03:56:38;;;;;;;;;;;;;;;6.82;78.46;98856.28;104687;1320;22793;-86
2023/05/05 04:00:40;;;;;;;;;;;;;;;;;;;;;
2023/05/05 04:08:00;;;;;;;;;;;;;;;6.99;78.75;98850.54;103989;1304;544860;-87
2023/05/05 04:11:28;;;;;;;;;;;;;;;7.02;78.43;98849.90;105998;1306;23027;-87
2023/05/05 04:14:57;;;;;;;;;;;;;;;7.09;78.07;98851.02;105949;1299;22652;-87
2023/05/05 04:25:20;;;;;;;;;;;;;;;7.30;77.87;98849.33;104950;1314;22661;-86
2023/05/05 04:28:47;;;;;;;;;;;;;;;7.36;77.69;98847.97;104781;1296;22632;-86
2023/05/05 04:31:50;;;;;;;;;;;;;;;7.42;77.95;98849.10;104230;1321;123414;-86
2023/05/05 04:46:50;;;;;;;;;;;;;;;7.89;77.19;98872.77;106228;1302;22556;-87
2023/05/05 05:04:39;;;;;;;;;;;;;;;8.73;75.95;98886.92;106122;1303;22639;-88
2023/05/05 05:08:49;;;;;;;;;;;;;;;8.86;75.82;98879.25;105336;1309;122162;-87
2023/05/05 05:15:19;;;;;;;;;;;;;;;9.09;75.64;98875.89;100195;1324;5467176;-86
2023/05/05 05:23:03;;;;;;;;;;;;;;;;;;;;;
2023/05/05 05:27:08;;;;;;;;;;;;;;;9.39;73.41;98890.75;106132;1300;123550;-86
2023/05/05 05:34:13;;;;;;;;;;;;;;;9.57;72.65;98890.77;101699;1304;5471627;-87
2023/05/05 05:41:28;;;;;;;;;;;;;;;9.81;72.63;98897.71;105936;1283;24354;-88
2023/05/05 05:45:00;;;;;;;;;;;;;;;9.91;72.33;98894.25;105454;1307;123667;-87
2023/05/05 05:48:33;;;;;;;;;;;;;;;10.04;72.40;98892.10;104677;1314;23379;-86
2023/05/05 05:56:04;;;;;;;;;;;;;;;10.35;71.52;98894.14;103835;1304;544631;-87
2023/05/05 05:59:38;;;;;;;;;;;;;;;10.48;70.99;98893.86;106108;1300;22557;-87
2023/05/05 06:13:13;;;;;;;;;;;;;;;;;;;;;
2023/05/05 06:20:31;;;;;;;;;;;;;;;10.89;69.82;98903.75;103771;1328;123845;-87
2023/05/05 06:27:55;;;;;;;;;;;;;;;11.05;69.95;98906.09;103940;1321;544851;-86
2023/05/05 06:31:22;;;;;;;;;;;;;;;11.12;70.04;98903.35;105878;1302;123454;-86
2023/05/05 06:34:26;;;;;;;;;;;;;;;11.21;70.14;98897.77;105855;1293;25245;-90
2023/05/05 06:45:48;;;;;;;;;;;;;;;11.48;69.57;98901.54;104759;1305;546300;-86
2023/05/05 06:49:16;;;;;;;;;;;;;;;11.54;69.03;98902.14;106479;1305;22556;-87
2023/05/05 06:56:08;;;;;;;;;;;;;;;11.76;68.94;98907.03;104912;1305;22800;-86
2023/05/05 06:59:00;;;;;;;;;;;;;;;11.88;68.66;98906.02;99899;1327;5549425;-86
2023/05/05 07:02:29;;;;;;;;;;;;;;;12.02;67.42;98906.85;103829;1331;25546;-90
2023/05/05 07:10:30;;;;;;;;;;;;;;;12.36;67.30;98906.07;106577;1300;123996;-87
2023/05/05 07:20:52;;;;;;;;;;;;;;;12.81;66.90;98894.91;101551;1309;5454783;-88
2023/05/05 07:24:18;;;;;;;;;;;;;;;12.96;66.68;98891.80;105520;1310;26626;-87
2023/05/05 07:27:48;;;;;;;;;;;;;;;13.07;66.27;98892.14;105067;1302;122922;-90
2023/05/05 07:42:09;;;;;;;;;;;;;;;13.58;64.83;98893.27;105122;1310;22815;-88
2023/05/05 07:59:59;;;;;;;;;;;;;;;14.19;61.17;98881.54;106295;1299;25260;-88
2023/05/05 08:06:55;;;;;;;;;;;;;;;14.60;59.46;98875.48;106043;1297;22558;-88
2023/05/05 08:10:23;;;;;;;;;;;;;;;14.78;58.53;98873.05;101276;1308;5477401;-87
2023/05/05 08:13:43;;;;;;;;;;;;;;;14.97;58.63;98875.98;105187;1311;25966;-88
2023/05/05 08:17:00;;;;;;;;;;;;;;;15.17;58.26;98877.45;105127;1292;122093;-89
2023/05/05 08:23:54;;;;;;;;;;;;;;;15.47;55.91;98878.27;104719;1311;122265;-89
2023/05/05 08:27:17;;;;;;;;;;;;;;;;;;;;;
2023/05/05 08:30:40;;;;;;;;;;;;;;;;;;;;;
2023/05/05 08:37:36;;;;;;;;;;;;;;;16.05;53.29;98877.70;104275;1316;22619;-90
2023/05/05 08:49:45;;;;;;;;;;;;;;;;;;;;;
2023/05/05 08:52:36;;;;;;;;;;;;;;;;;;;;;
2023/05/05 08:56:32;;;;;;;;;;;;;;;16.53;50.05;98877.29;103658;1311;22578;-88
2023/05/05 09:07:54;;;;;;;;;;;;;;;;;;;;;
2023/05/05 09:35:48;;;;;;;;;;;;;;;;;;;;;
2023/05/05 09:39:41;;;;;;;;;;;;;;;18.30;47.35;98869.84;102496;1301;5353911;-88
2023/05/05 09:42:36;;;;;;;;;;;;;;;;;;;;;
2023/05/05 09:46:08;;;;;;;;;;;;;;;;;;;;;
2023/05/05 09:49:35;;;;;;;;;;;;;;;18.60;46.21;98860.04;107147;1297;22566;-89
2023/05/05 09:52:39;;;;;;;;;;;;;;;;;;;;;
2023/05/05 09:55:48;;;;;;;;;;;;;;;;;;;;;
2023/05/05 10:06:32;;;;;;;;;;;;;;;19.28;44.47;98856.30;105225;1302;123380;-89
2023/05/05 10:13:35;;;;;;;;;;;;;;;19.58;43.85;98857.50;104701;1319;22580;-87
2023/05/05 10:16:59;;;;;;;;;;;;;;;19.61;42.88;98850.77;104574;1301;122793;-88
2023/05/05 10:19:58;;;;;;;;;;;;;;;;;;;;;
2023/05/05 10:23:03;;;;;;;;;;;;;;;;;;;;;
2023/05/05 10:26:48;;;;;;;;;;;;;;;19.72;41.80;98852.70;104557;1304;22599;-89
2023/05/05 10:30:14;;;;;;;;;;;;;;;19.74;43.13;98854.71;104184;1324;123636;-89
2023/05/05 10:33:16;;;;;;;;;;;;;;;;;;;;;
2023/05/05 10:36:59;;;;;;;;;;;;;;;;;;;;;
2023/05/05 10:40:42;;;;;;;;;;;;;;;20.26;42.91;98847.50;104919;1317;123995;-88
2023/05/05 10:43:33;;;;;;;;;;;;;;;;;;;;;
2023/05/05 10:47:21;;;;;;;;;;;;;;;20.45;41.47;98840.34;104857;1298;123565;-87
2023/05/05 10:51:00;;;;;;;;;;;;;;;20.61;41.22;98839.11;104841;1316;24209;-90
2023/05/05 11:00:42;;;;;;;;;;;;;;;;;;;;;
2023/05/05 11:04:05;;;;;;;;;;;;;;;;;;;;;
2023/05/05 11:07:48;;;;;;;;;;;;;;;20.59;40.48;98825.95;105146;1294;23369;-88
2023/05/05 11:10:28;;;;;;;;;;;;;;;20.64;41.25;98817.89;104804;1310;123657;-89
2023/05/05 11:14:16;;;;;;;;;;;;;;;20.71;41.96;98820.42;104968;1307;22664;-87
2023/05/05 11:17:48;;;;;;;;;;;;;;;20.82;40.18;98815.57;104738;1295;124430;-89
2023/05/05 11:20:39;;;;;;;;;;;;;;;;;;;;;
2023/05/05 11:24:11;;;;;;;;;;;;;;;;;;;;;
2023/05/05 11:27:21;;;;;;;;;;;;;;;;;;;;;
2023/05/05 11:30:20;;;;;;;;;;;;;;;;;;;;;
2023/05/05 11:34:10;;;;;;;;;;;;;;;21.08;39.53;98813.23;104541;1316;22741;-90
2023/05/05 11:37:30;;;;;;;;;;;;;;;;;;;;;
2023/05/05 11:41:15;;;;;;;;;;;;;;;21.07;37.38;98815.63;104781;1315;122978;-88
2023/05/05 11:43:47;;;;;;;;;;;;;;;21.09;38.17;98813.64;104744;1318;23378;-89
2023/05/05 11:47:08;;;;;;;;;;;;;;;;;;;;;
2023/05/05 11:50:08;;;;;;;;;;;;;;;;;;;;;
2023/05/05 11:54:02;;;;;;;;;;;;;;;21.63;37.19;98804.56;104361;1319;123412;-90
2023/05/05 11:57:22;;;;;;;;;;;;;;;21.71;38.44;98806.02;103994;1300;22565;-90
2023/05/05 12:00:27;;;;;;;;;;;;;;;21.87;37.03;98802.52;104887;1319;123672;-88
2023/05/05 12:03:38;;;;;;;;;;;;;;;21.99;36.55;98798.04;104308;1316;22658;-86
2023/05/05 12:07:30;;;;;;;;;;;;;;;22.10;36.97;98794.55;104174;1301;22783;-87
2023/05/05 12:10:57;;;;;;;;;;;;;;;22.29;36.55;98795.11;103875;1327;123915;-88
2023/05/05 12:13:52;;;;;;;;;;;;;;;;;;;;;
2023/05/05 12:17:02;;;;;;;;;;;;;;;;;;;;;
2023/05/05 12:20:05;;;;;;;;;;;;;;;;;;;;;
2023/05/05 12:23:10;;;;;;;;;;;;;;;;;;;;;
2023/05/05 12:26:40;;;;;;;;;;;;;;;;;;;;;
2023/05/05 12:30:23;;;;;;;;;;;;;;;22.72;33.32;98786.51;104917;1298;123654;-89
2023/05/05 12:36:21;;;;;;;;;;;;;;;;;;;;;
2023/05/05 12:42:48;;;;;;;;;;;;;;;;;;;;;
2023/05/05 12:46:10;;;;;;;;;;;;;;;;;;;;;
2023/05/05 12:53:06;;;;;;;;;;;;;;;;;;;;;
2023/05/05 12:57:34;;;;;;;;;;;;;;;23.23;32.71;98764.95;105548;1305;22590;-91
2023/05/05 13:00:28;;;;;;;;;;;;;;;;;;;;;
2023/05/05 13:03:52;;;;;;;;;;;;;;;;;;;;;
2023/05/05 13:07:19;;;;;;;;;;;;;;;;;;;;;
2023/05/05 13:10:34;;;;;;;;;;;;;;;;;;;;;
2023/05/05 13:13:14;;;;;;;;;;;;;;;23.24;32.00;98752.80;106790;1296;22535;-89
2023/05/05 13:16:31;;;;;;;;;;;;;;;;;;;;;
2023/05/05 13:19:41;;;;;;;;;;;;;;;;;;;;;
2023/05/05 13:26:34;;;;;;;;;;;;;;;;;;;;;
2023/05/05 13:29:21;;;;;;;;;;;;;;;;;;;;;
2023/05/05 13:32:26;;;;;;;;;;;;;;;;;;;;;
2023/05/05 13:35:19;;;;;;;;;;;;;;;23.42;32.80;98731.65;105147;1307;123141;-87
2023/05/05 13:38:52;;;;;;;;;;;;;;;;;;;;;
2023/05/05 13:42:39;;;;;;;;;;;;;;;23.52;32.45;98727.19;105124;1310;123528;-89
2023/05/05 13:45:19;;;;;;;;;;;;;;;;;;;;;
2023/05/05 13:48:14;;;;;;;;;;;;;;;23.52;32.44;98725.70;105459;1292;123615;-88
2023/05/05 13:51:34;;;;;;;;;;;;;;;;;;;;;
2023/05/05 13:54:49;;;;;;;;;;;;;;;23.50;33.62;98717.99;105468;1305;123815;-89
2023/05/05 13:57:43;;;;;;;;;;;;;;;23.62;31.79;98711.31;105481;1292;23451;-91
2023/05/05 14:01:18;;;;;;;;;;;;;;;23.62;31.00;98702.59;105475;1304;22553;-87
2023/05/05 14:04:28;;;;;;;;;;;;;;;23.66;31.56;98703.23;105216;1302;24191;-87
2023/05/05 14:07:23;;;;;;;;;;;;;;;;;;;;;
2023/05/05 14:10:29;;;;;;;;;;;;;;;;;;;;;
2023/05/05 14:13:46;;;;;;;;;;;;;;;;;;;;;
2023/05/05 14:17:10;;;;;;;;;;;;;;;;;;;;;
2023/05/05 14:20:26;;;;;;;;;;;;;;;;;;;;;
2023/05/05 14:23:43;;;;;;;;;;;;;;;23.86;30.51;98691.23;105591;1301;123414;-89
2023/05/05 14:26:47;;;;;;;;;;;;;;;;;;;;;
2023/05/05 14:29:54;;;;;;;;;;;;;;;23.74;31.69;98692.86;105702;1280;123891;-91
2023/05/05 14:33:04;;;;;;;;;;;;;;;23.74;31.64;98691.75;105475;1301;22557;-90
2023/05/05 14:36:05;;;;;;;;;;;;;;;;;;;;;
2023/05/05 14:39:25;;;;;;;;;;;;;;;;;;;;;
2023/05/05 14:42:49;;;;;;;;;;;;;;;23.93;30.85;98686.52;105419;1303;123204;-86
2023/05/05 14:46:05;;;;;;;;;;;;;;;;;;;;;
2023/05/05 14:49:12;;;;;;;;;;;;;;;23.63;31.65;98686.42;104817;1311;22561;-88
2023/05/05 14:52:34;;;;;;;;;;;;;;;23.50;32.09;98683.34;105097;1310;22561;-87
2023/05/05 14:55:56;;;;;;;;;;;;;;;;;;;;;
2023/05/05 14:59:51;;;;;;;;;;;;;;;23.53;31.24;98684.52;104589;1289;123527;-86
2023/05/05 15:02:53;;;;;;;;;;;;;;;;;;;;;
2023/05/05 15:05:46;;;;;;;;;;;;;;;;;;;;;
2023/05/05 15:08:42;;;;;;;;;;;;;;;;;;;;;
2023/05/05 15:12:28;;;;;;;;;;;;;;;23.49;33.14;98688.92;105663;1304;123917;-88
2023/05/05 15:15:50;;;;;;;;;;;;;;;23.41;33.46;98687.77;105796;1303;22559;-86
2023/05/05 15:19:08;;;;;;;;;;;;;;;23.39;31.77;98686.95;105194;1306;123341;-89
2023/05/05 15:22:20;;;;;;;;;;;;;;;23.41;31.78;98689.92;105296;1288;22658;-87
2023/05/05 15:25:56;;;;;;;;;;;;;;;23.36;32.84;98688.71;105378;1307;22632;-88
2023/05/05 15:28:57;;;;;;;;;;;;;;;;;;;;;
2023/05/05 15:31:57;;;;;;;;;;;;;;;23.41;31.81;98688.16;105315;1288;26424;-90
2023/05/05 15:34:57;;;;;;;;;;;;;;;23.43;31.29;98684.61;105099;1306;123478;-89
2023/05/05 15:38:30;;;;;;;;;;;;;;;;;;;;;
2023/05/05 15:41:31;;;;;;;;;;;;;;;;;;;;;
2023/05/05 15:45:25;;;;;;;;;;;;;;;23.13;31.81;98686.52;104900;1305;22639;-91
2023/05/05 15:48:51;;;;;;;;;;;;;;;23.16;31.97;98686.73;104536;1313;123473;-91
2023/05/05 15:51:53;;;;;;;;;;;;;;;23.22;31.81;98684.06;104643;1314;23180;-87
2023/05/05 15:55:41;;;;;;;;;;;;;;;;;;;;;
2023/05/05 15:58:57;;;;;;;;;;;;;;;23.27;31.33;98684.84;104406;1317;22543;-88
2023/05/05 16:01:44;;;;;;;;;;;;;;;;;;;;;
2023/05/05 16:04:49;;;;;;;;;;;;;;;;;;;;;
2023/05/05 16:08:07;;;;;;;;;;;;;;;;;;;;;
2023/05/05 16:11:37;;;;;;;;;;;;;;;23.13;32.28;98680.39;105181;1302;124458;-91
2023/05/05 16:15:06;;;;;;;;;;;;;;;23.09;32.36;98680.53;104826;1300;24003;-88
2023/05/05 16:19:04;;;;;;;;;;;;;;;22.99;33.39;98679.92;104703;1312;124148;-91
2023/05/05 16:21:51;;;;;;;;;;;;;;;;;;;;;
2023/05/05 16:25:01;;;;;;;;;;;;;;;;;;;;;
2023/05/05 16:28:14;;;;;;;;;;;;;;;;;;;;;
2023/05/05 16:35:09;;;;;;;;;;;;;;;;;;;;;
2023/05/05 16:38:29;;;;;;;;;;;;;;;;;;;;;
2023/05/05 16:41:39;;;;;;;;;;;;;;;;;;;;;
2023/05/05 16:45:12;;;;;;;;;;;;;;;23.02;32.42;98667.48;105638;1295;23023;-87
2023/05/05 16:48:05;;;;;;;;;;;;;;;;;;;;;
2023/05/05 16:51:24;;;;;;;;;;;;;;;;;;;;;
2023/05/05 16:55:22;;;;;;;;;;;;;;;22.17;33.20;98664.36;106684;1276;123424;-96
2023/05/05 16:58:32;;;;;;;;;;;;;;;22.01;33.67;98664.63;106734;1292;22772;-89
2023/05/05 17:01:34;;;;;;;;;;;;;;;;;;;;;
2023/05/05 17:05:08;;;;;;;;;;;;;;;23.16;33.16;98664.04;108112;1262;22536;-91
2023/05/05 17:08:14;;;;;;;;;;;;;;;;;;;;;
2023/05/05 17:11:23;;;;;;;;;;;;;;;23.68;32.20;98664.80;107037;1296;123792;-94
2023/05/05 17:14:56;;;;;;;;;;;;;;;23.36;32.57;98666.52;106240;1300;23568;-90
2023/05/05 17:18:24;;;;;;;;;;;;;;;22.93;33.17;98673.14;105812;1298;123787;-88
2023/05/05 17:21:25;;;;;;;;;;;;;;;22.20;34.05;98673.48;105587;1310;22543;-88
2023/05/05 17:25:04;;;;;;;;;;;;;;;;;;;;;
2023/05/05 17:28:43;;;;;;;;;;;;;;;20.99;35.42;98679.21;105021;1314;22678;-89
2023/05/05 17:32:09;;;;;;;;;;;;;;;20.47;35.47;98682.73;104814;1318;23417;-90
2023/05/05 17:35:10;;;;;;;;;;;;;;;20.05;36.94;98689.48;104519;1303;22560;-89
2023/05/05 17:43:04;;;;;;;;;;;;;;;19.24;39.57;98686.13;104155;1301;545674;-86
2023/05/05 17:46:36;;;;;;;;;;;;;;;18.77;40.13;98684.98;106314;1304;22591;-88
2023/05/05 17:53:29;;;;;;;;;;;;;;;18.07;41.56;98690.45;104538;1305;22570;-87
2023/05/05 17:56:32;;;;;;;;;;;;;;;17.75;43.50;98692.16;100076;1326;5649905;-87
2023/05/05 18:00:26;;;;;;;;;;;;;;;17.45;44.05;98690.64;103971;1329;123062;-87
2023/05/05 18:03:54;;;;;;;;;;;;;;;17.13;43.46;98692.09;104188;1311;22566;-87
2023/05/05 18:06:47;;;;;;;;;;;;;;;16.84;44.11;98696.47;104302;1327;123705;-87
2023/05/05 18:10:15;;;;;;;;;;;;;;;16.56;46.16;98696.37;103526;1329;25246;-86
2023/05/05 18:13:41;;;;;;;;;;;;;;;;;;;;;
2023/05/05 18:17:56;;;;;;;;;;;;;;;16.08;47.64;98702.44;104376;1304;544399;-87
2023/05/05 18:21:24;;;;;;;;;;;;;;;15.81;47.67;98706.09;106802;1300;22577;-92
2023/05/05 18:28:14;;;;;;;;;;;;;;;15.36;48.24;98712.40;105410;1295;22544;-86
2023/05/05 18:31:40;;;;;;;;;;;;;;;15.19;48.35;98713.55;101064;1314;5473828;-88
2023/05/05 18:35:06;;;;;;;;;;;;;;;15.01;48.67;98717.48;104507;1318;22524;-88
2023/05/05 18:38:06;;;;;;;;;;;;;;;;;;;;;
2023/05/05 18:46:00;;;;;;;;;;;;;;;14.57;51.34;98718.45;104196;1304;547100;-86
2023/05/05 18:49:27;;;;;;;;;;;;;;;14.39;51.84;98722.83;105963;1303;123262;-85
2023/05/05 18:52:56;;;;;;;;;;;;;;;14.27;52.50;98724.38;105515;1310;22464;-88
2023/05/05 18:59:49;;;;;;;;;;;;;;;14.02;52.97;98726.98;100785;1321;5472630;-86
2023/05/05 19:03:25;;;;;;;;;;;;;;;;;;;;;
2023/05/05 19:14:04;;;;;;;;;;;;;;;13.56;54.90;98722.48;104023;1301;544794;-87
2023/05/05 19:17:33;;;;;;;;;;;;;;;13.39;55.47;98721.44;106495;1282;25404;-86
2023/05/05 19:21:01;;;;;;;;;;;;;;;13.28;55.20;98721.89;106139;1298;23011;-87
2023/05/05 19:27:53;;;;;;;;;;;;;;;13.05;55.70;98719.27;100619;1311;5519869;-87
2023/05/05 19:34:48;;;;;;;;;;;;;;;12.85;56.70;98705.84;103605;1324;22941;-87
2023/05/05 19:42:17;;;;;;;;;;;;;;;12.70;56.38;98708.43;103899;1304;544542;-87
2023/05/05 19:45:44;;;;;;;;;;;;;;;12.60;56.86;98709.65;105698;1303;22663;-86
2023/05/05 19:49:10;;;;;;;;;;;;;;;12.52;56.44;98710.27;104880;1311;122957;-88
2023/05/05 20:03:14;;;;;;;;;;;;;;;;;;;;;
2023/05/05 20:13:52;;;;;;;;;;;;;;;12.19;57.10;98709.66;103890;1307;123080;-87
2023/05/05 20:20:30;;;;;;;;;;;;;;;;;;;;;
2023/05/05 20:28:12;;;;;;;;;;;;;;;12.00;58.99;98714.60;103872;1308;545428;-86
2023/05/05 20:31:40;;;;;;;;;;;;;;;11.92;59.32;98714.30;106429;1292;123067;-88
2023/05/05 20:46:01;;;;;;;;;;;;;;;11.76;59.31;98693.99;103985;1305;544383;-86
2023/05/05 20:49:29;;;;;;;;;;;;;;;11.72;60.23;98698.11;105353;1306;123437;-86
2023/05/05 21:07:14;;;;;;;;;;;;;;;11.51;61.31;98715.52;105436;1306;123720;-89
2023/05/05 21:14:06;;;;;;;;;;;;;;;11.37;61.58;98711.80;103712;1311;123189;-87
2023/05/05 21:21:34;;;;;;;;;;;;;;;11.29;62.60;98709.06;103922;1305;545821;-88
2023/05/05 21:25:02;;;;;;;;;;;;;;;11.21;62.80;98708.58;106519;1290;123189;-86
2023/05/05 21:28:06;;;;;;;;;;;;;;;11.16;63.01;98705.05;106017;1296;22543;-86
2023/05/05 21:31:59;;;;;;;;;;;;;;;11.11;63.43;98703.76;105395;1289;123064;-87
2023/05/05 22:00:15;;;;;;;;;;;;;;;10.64;65.42;98688.04;104213;1305;546846;-89
2023/05/05 22:03:42;;;;;;;;;;;;;;;10.58;65.57;98681.92;105845;1305;22556;-88
2023/05/05 22:06:41;;;;;;;;;;;;;;;;;;;;;
2023/05/05 22:10:35;;;;;;;;;;;;;;;10.50;65.96;98688.53;104695;1296;23215;-86
2023/05/05 22:24:31;;;;;;;;;;;;;;;10.31;66.36;98679.39;103974;1304;545650;-86
2023/05/05 22:35:20;;;;;;;;;;;;;;;10.14;66.82;98688.40;104325;1302;22550;-86
2023/05/05 22:38:46;;;;;;;;;;;;;;;10.09;67.26;98685.09;100261;1321;5450970;-87
2023/05/05 22:45:42;;;;;;;;;;;;;;;10.01;67.40;98680.98;103861;1305;22781;-86
2023/05/05 22:53:22;;;;;;;;;;;;;;;9.93;67.67;98681.02;104032;1321;545119;-87
2023/05/05 22:56:51;;;;;;;;;;;;;;;9.86;67.68;98682.77;106360;1287;122284;-86
2023/05/05 23:00:19;;;;;;;;;;;;;;;9.82;68.18;98681.77;105764;1304;22646;-87
2023/05/05 23:03:45;;;;;;;;;;;;;;;9.78;68.12;98687.66;104883;1292;24227;-86
2023/05/05 23:14:40;;;;;;;;;;;;;;;9.66;68.71;98684.42;103782;1305;544631;-88
2023/05/05 23:18:08;;;;;;;;;;;;;;;9.57;69.08;98677.67;106312;1294;22624;-88
2023/05/05 23:32:21;;;;;;;;;;;;;;;;;;;;;
2023/05/05 23:36:11;;;;;;;;;;;;;;;9.35;70.12;98646.77;105410;1306;25250;-88
2023/05/05 23:39:40;;;;;;;;;;;;;;;9.29;70.14;98643.63;104842;1296;22729;-87
2023/05/05 23:43:10;;;;;;;;;;;;;;;9.26;70.29;98641.70;101062;1310;5448480;-87
2023/05/05 23:46:15;;;;;;;;;;;;;;;;;;;;;
2023/05/05 23:49:59;;;;;;;;;;;;;;;9.19;70.59;98643.52;104526;1296;123878;-87
2023/05/05 23:53:01;;;;;;;;;;;;;;;9.15;70.81;98636.98;104307;1319;22611;-87
2023/05/05 23:56:53;;;;;;;;;;;;;;;9.14;70.83;98637.33;104422;1312;124381;-88
